Time;durP1;ratioP1;P1;durP2;ratioP2;P2;SDS_P1;SDS_P2;PMS_P1;PMS_P2;Temp;Humidity;BMP_temperature;BMP_pressure;BME280_temperature;BME280_humidity;BME280_pressure;Samples;Min_cycle;Max_cycle;Signal;HPM_P1;HPM_P2
2022/09/17 00:00:32;;;;;;;;;;;17.30;65.10;;;;;;5091294;28;19924;-85
2022/09/17 00:02:57;;;;;;;;;;;17.40;65.20;;;;;;5090193;28;20334;-90
2022/09/17 00:05:23;;;;;;;;;;;17.40;65.20;;;;;;5091314;28;19966;-85
2022/09/17 00:07:52;;;;;;;;;;;17.40;65.00;;;;;;5086935;28;20006;-84
2022/09/17 00:10:18;;;;;;;;;;;17.50;64.90;;;;;;5073884;28;19985;-88
2022/09/17 00:12:44;;;;;;;;;;;17.50;64.90;;;;;;5074201;28;19912;-85
2022/09/17 00:15:09;;;;;;;;;;;17.50;64.90;;;;;;5090769;28;19916;-88
2022/09/17 00:17:35;;;;;;;;;;;17.50;64.90;;;;;;5089447;28;20007;-89
2022/09/17 00:20:01;;;;;;;;;;;17.50;64.90;;;;;;5089908;28;19977;-88
2022/09/17 00:22:26;;;;;;;;;;;17.50;65.00;;;;;;5091980;28;19965;-85
2022/09/17 00:24:52;;;;;;;;;;;17.60;65.00;;;;;;5086084;28;20395;-91
2022/09/17 00:27:17;;;;;;;;;;;17.60;64.90;;;;;;5070110;28;19999;-90
2022/09/17 00:29:43;;;;;;;;;;;17.60;64.90;;;;;;5070001;28;19982;-86
2022/09/17 00:32:09;;;;;;;;;;;17.70;64.90;;;;;;5070521;28;20271;-90
2022/09/17 00:34:34;;;;;;;;;;;17.70;64.80;;;;;;5068904;28;19914;-89
2022/09/17 00:37:00;;;;;;;;;;;17.70;64.70;;;;;;5070700;28;19919;-86
2022/09/17 00:39:25;;;;;;;;;;;17.60;64.60;;;;;;5070498;28;19912;-88
2022/09/17 00:41:51;;;;;;;;;;;17.60;64.60;;;;;;5070141;28;19928;-84
2022/09/17 00:44:35;;;;;;;;;;;17.50;64.60;;;;;;5069369;28;19966;-87
2022/09/17 00:47:00;;;;;;;;;;;17.50;64.60;;;;;;5070341;28;20298;-85
2022/09/17 00:49:28;;;;;;;;;;;17.50;64.60;;;;;;5069252;28;19917;-85
2022/09/17 00:52:00;;;;;;;;;;;17.40;64.60;;;;;;5070268;28;20680;-85
2022/09/17 00:54:26;;;;;;;;;;;17.40;64.70;;;;;;5070067;28;19912;-85
2022/09/17 00:56:51;;;;;;;;;;;17.40;64.60;;;;;;5069367;28;19912;-85
2022/09/17 00:59:18;;;;;;;;;;;17.40;64.60;;;;;;5068563;28;19913;-85
2022/09/17 01:01:44;;;;;;;;;;;17.30;64.50;;;;;;5076020;28;19946;-84
2022/09/17 01:04:16;;;;;;;;;;;17.30;64.30;;;;;;5090198;28;19923;-84
2022/09/17 01:07:05;;;;;;;;;;;17.30;64.20;;;;;;5090609;28;19999;-84
2022/09/17 01:09:33;;;;;;;;;;;17.20;64.20;;;;;;5088756;28;19912;-90
2022/09/17 01:12:15;;;;;;;;;;;17.20;64.40;;;;;;5090466;28;19969;-84
2022/09/17 01:14:59;;;;;;;;;;;17.20;64.50;;;;;;5089731;28;19912;-85
2022/09/17 01:17:45;;;;;;;;;;;17.20;64.70;;;;;;5090375;28;19924;-85
2022/09/17 01:20:21;;;;;;;;;;;17.20;64.70;;;;;;5085451;28;19927;-84
2022/09/17 01:22:50;;;;;;;;;;;17.20;64.80;;;;;;5088767;28;19908;-90
2022/09/17 01:25:21;;;;;;;;;;;17.20;64.70;;;;;;5090051;28;19917;-85
2022/09/17 01:27:56;;;;;;;;;;;17.20;64.80;;;;;;5089174;28;19908;-85
2022/09/17 01:30:31;;;;;;;;;;;17.20;64.80;;;;;;5089891;28;19923;-89
2022/09/17 01:33:06;;;;;;;;;;;17.20;64.80;;;;;;5089790;28;19919;-85
2022/09/17 01:35:35;;;;;;;;;;;17.10;64.70;;;;;;5090016;28;19917;-87
2022/09/17 01:38:04;;;;;;;;;;;17.10;64.60;;;;;;5088534;28;19918;-85
2022/09/17 01:40:45;;;;;;;;;;;17.10;64.50;;;;;;5088543;28;19966;-85
2022/09/17 01:43:28;;;;;;;;;;;17.00;64.40;;;;;;5088160;28;19991;-85
2022/09/17 01:46:27;;;;;;;;;;;16.90;64.40;;;;;;5089644;28;19931;-84
2022/09/17 01:48:55;;;;;;;;;;;16.90;64.40;;;;;;5079548;28;19908;-90
2022/09/17 01:51:25;;;;;;;;;;;16.80;64.40;;;;;;5068850;28;20313;-90
2022/09/17 01:54:03;;;;;;;;;;;16.80;64.20;;;;;;5083354;28;20351;-89
2022/09/17 01:56:32;;;;;;;;;;;16.80;64.10;;;;;;5088335;28;20377;-90
2022/09/17 01:59:03;;;;;;;;;;;16.80;64.20;;;;;;5089533;28;19908;-85
2022/09/17 02:01:30;;;;;;;;;;;16.80;64.40;;;;;;5082105;28;20341;-85
2022/09/17 02:03:58;;;;;;;;;;;16.80;64.60;;;;;;5083120;28;20564;-87
2022/09/17 02:06:26;;;;;;;;;;;16.80;64.60;;;;;;5088204;28;19923;-86
2022/09/17 02:08:54;;;;;;;;;;;16.80;64.70;;;;;;5072557;28;19991;-84
2022/09/17 02:11:20;;;;;;;;;;;16.90;64.60;;;;;;5071323;28;19923;-90
2022/09/17 02:13:48;;;;;;;;;;;16.90;64.60;;;;;;5072708;28;19908;-85
2022/09/17 02:16:31;;;;;;;;;;;16.90;64.40;;;;;;5074475;28;20391;-88
2022/09/17 02:19:00;;;;;;;;;;;16.80;64.30;;;;;;5075689;28;19908;-88
2022/09/17 02:21:25;;;;;;;;;;;16.70;64.10;;;;;;5092705;28;19928;-87
2022/09/17 02:24:14;;;;;;;;;;;16.70;63.90;;;;;;5092869;28;19912;-86
2022/09/17 02:26:42;;;;;;;;;;;16.60;63.90;;;;;;5091558;28;20370;-90
2022/09/17 02:29:11;;;;;;;;;;;16.60;63.90;;;;;;5091332;28;19908;-89
2022/09/17 02:31:36;;;;;;;;;;;16.50;63.90;;;;;;5091426;28;19916;-89
2022/09/17 02:34:03;;;;;;;;;;;16.50;63.80;;;;;;5092032;28;19908;-88
2022/09/17 02:36:30;;;;;;;;;;;16.50;63.90;;;;;;5092633;28;19968;-85
2022/09/17 02:39:00;;;;;;;;;;;16.40;63.70;;;;;;5092630;28;19908;-85
2022/09/17 02:41:33;;;;;;;;;;;16.30;63.70;;;;;;5091132;28;20395;-85
2022/09/17 02:44:09;;;;;;;;;;;16.30;63.60;;;;;;5091258;28;20274;-90
2022/09/17 02:46:53;;;;;;;;;;;16.20;63.70;;;;;;5093449;28;19920;-85
2022/09/17 02:49:37;;;;;;;;;;;16.20;63.70;;;;;;5092302;28;19961;-89
2022/09/17 02:52:03;;;;;;;;;;;16.10;63.60;;;;;;5092344;28;19923;-87
2022/09/17 02:54:35;;;;;;;;;;;16.00;63.70;;;;;;5090797;28;19959;-86
2022/09/17 02:57:07;;;;;;;;;;;16.00;63.60;;;;;;5074161;28;19956;-85
2022/09/17 02:59:51;;;;;;;;;;;16.00;63.70;;;;;;5074865;28;19943;-87
2022/09/17 03:02:20;;;;;;;;;;;16.00;63.70;;;;;;5070475;28;19963;-85
2022/09/17 03:04:47;;;;;;;;;;;15.90;63.90;;;;;;5071631;28;19943;-85
2022/09/17 03:07:13;;;;;;;;;;;15.80;63.90;;;;;;5076081;28;19918;-89
2022/09/17 03:09:39;;;;;;;;;;;15.80;63.80;;;;;;5091486;28;19908;-85
2022/09/17 03:12:04;;;;;;;;;;;15.80;63.70;;;;;;5085796;28;19970;-88
2022/09/17 03:14:30;;;;;;;;;;;15.70;63.70;;;;;;5071160;28;19948;-90
2022/09/17 03:16:56;;;;;;;;;;;15.70;63.80;;;;;;5071848;28;19927;-86
2022/09/17 03:19:21;;;;;;;;;;;15.80;64.00;;;;;;5071982;28;20510;-86
2022/09/17 03:21:47;;;;;;;;;;;15.80;64.10;;;;;;5071843;28;19967;-84
2022/09/17 03:24:13;;;;;;;;;;;15.80;64.10;;;;;;5077393;28;19908;-88
2022/09/17 03:26:38;;;;;;;;;;;15.80;64.00;;;;;;5093166;28;19917;-89
2022/09/17 03:29:04;;;;;;;;;;;15.70;63.80;;;;;;5090460;28;20010;-85
2022/09/17 03:31:29;;;;;;;;;;;15.70;63.70;;;;;;5091975;28;19923;-85
2022/09/17 03:33:55;;;;;;;;;;;15.60;63.50;;;;;;5091541;28;19908;-88
2022/09/17 03:36:20;;;;;;;;;;;15.50;63.20;;;;;;5091882;28;20274;-90
2022/09/17 03:38:46;;;;;;;;;;;15.50;63.10;;;;;;5091074;28;19916;-87
2022/09/17 03:41:11;;;;;;;;;;;15.40;63.00;;;;;;5091967;28;19927;-86
2022/09/17 03:43:38;;;;;;;;;;;15.30;62.90;;;;;;5089994;28;20009;-89
2022/09/17 03:46:04;;;;;;;;;;;15.20;62.80;;;;;;5090871;28;19921;-85
2022/09/17 03:48:31;;;;;;;;;;;15.20;62.90;;;;;;5091489;28;19965;-90
2022/09/17 03:50:56;;;;;;;;;;;15.10;62.90;;;;;;5090829;28;19916;-87
2022/09/17 03:53:22;;;;;;;;;;;15.10;63.00;;;;;;5090822;28;20355;-88
2022/09/17 03:55:47;;;;;;;;;;;15.00;63.00;;;;;;5090019;28;20332;-87
2022/09/17 03:58:13;;;;;;;;;;;15.00;62.80;;;;;;5089806;28;19919;-86
2022/09/17 04:00:38;;;;;;;;;;;14.90;62.80;;;;;;5085641;28;19924;-90
2022/09/17 04:03:04;;;;;;;;;;;14.90;63.00;;;;;;5069854;28;20302;-90
2022/09/17 04:05:30;;;;;;;;;;;14.80;63.10;;;;;;5071085;28;20416;-90
2022/09/17 04:07:55;;;;;;;;;;;14.80;63.20;;;;;;5069584;28;19920;-87
2022/09/17 04:10:22;;;;;;;;;;;14.80;63.50;;;;;;5071792;28;19913;-89
2022/09/17 04:12:47;;;;;;;;;;;14.80;63.70;;;;;;5069554;28;19913;-86
2022/09/17 04:15:13;;;;;;;;;;;14.80;63.60;;;;;;5071119;28;19920;-89
2022/09/17 04:17:38;;;;;;;;;;;14.80;63.70;;;;;;5069658;28;19920;-85
2022/09/17 04:20:05;;;;;;;;;;;14.80;63.60;;;;;;5068937;28;19974;-85
2022/09/17 04:22:30;;;;;;;;;;;14.70;63.40;;;;;;5069663;28;19908;-85
2022/09/17 04:24:56;;;;;;;;;;;14.70;63.20;;;;;;5070219;28;20412;-87
2022/09/17 04:27:21;;;;;;;;;;;14.70;63.20;;;;;;5070764;28;20329;-88
2022/09/17 04:29:47;;;;;;;;;;;14.60;63.30;;;;;;5068743;28;19916;-89
2022/09/17 04:32:12;;;;;;;;;;;14.60;63.40;;;;;;5070842;28;20343;-87
2022/09/17 04:34:38;;;;;;;;;;;14.60;63.30;;;;;;5070398;28;19916;-85
2022/09/17 04:37:03;;;;;;;;;;;14.60;63.30;;;;;;5069053;28;19920;-85
2022/09/17 04:39:29;;;;;;;;;;;14.50;63.40;;;;;;5070480;28;19948;-90
2022/09/17 04:41:54;;;;;;;;;;;14.60;63.70;;;;;;5070732;28;20279;-90
2022/09/17 04:44:20;;;;;;;;;;;14.50;63.80;;;;;;5069970;28;19909;-88
2022/09/17 04:46:45;;;;;;;;;;;14.60;63.80;;;;;;5071653;28;19947;-90
2022/09/17 04:49:11;;;;;;;;;;;14.60;63.60;;;;;;5068879;28;19919;-89
2022/09/17 04:51:37;;;;;;;;;;;14.50;63.40;;;;;;5070570;28;19920;-89
2022/09/17 04:54:03;;;;;;;;;;;14.50;63.40;;;;;;5068583;28;19915;-86
2022/09/17 04:56:29;;;;;;;;;;;14.40;63.40;;;;;;5068677;28;20318;-90
2022/09/17 04:58:54;;;;;;;;;;;14.40;63.20;;;;;;5069234;28;19916;-85
2022/09/17 05:01:19;;;;;;;;;;;14.40;63.30;;;;;;5081715;28;20279;-88
2022/09/17 05:03:45;;;;;;;;;;;14.40;63.40;;;;;;5091324;28;19908;-88
2022/09/17 05:06:11;;;;;;;;;;;14.30;63.30;;;;;;5090887;28;19975;-86
2022/09/17 05:08:36;;;;;;;;;;;14.30;63.30;;;;;;5088858;28;19909;-87
2022/09/17 05:11:02;;;;;;;;;;;14.30;63.20;;;;;;5090020;28;19916;-88
2022/09/17 05:13:27;;;;;;;;;;;14.30;63.40;;;;;;5091059;28;20003;-85
2022/09/17 05:15:55;;;;;;;;;;;14.30;63.30;;;;;;5090249;28;19942;-87
2022/09/17 05:18:21;;;;;;;;;;;14.20;63.30;;;;;;5089131;28;19960;-89
2022/09/17 05:20:47;;;;;;;;;;;14.30;63.40;;;;;;5089156;28;20281;-85
2022/09/17 05:23:12;;;;;;;;;;;14.20;63.40;;;;;;5090415;28;19935;-87
2022/09/17 05:25:38;;;;;;;;;;;14.20;63.50;;;;;;5088746;28;19988;-88
2022/09/17 05:28:03;;;;;;;;;;;14.20;63.60;;;;;;5088613;28;19919;-86
2022/09/17 05:30:29;;;;;;;;;;;14.20;63.60;;;;;;5089956;28;20359;-86
2022/09/17 05:32:58;;;;;;;;;;;14.20;63.70;;;;;;5090112;28;19915;-86
2022/09/17 05:35:24;;;;;;;;;;;14.20;63.80;;;;;;5088675;28;19927;-86
2022/09/17 05:37:49;;;;;;;;;;;14.20;63.80;;;;;;5089632;28;19939;-86
2022/09/17 05:40:15;;;;;;;;;;;14.30;63.90;;;;;;5089974;28;19930;-89
2022/09/17 05:42:41;;;;;;;;;;;14.30;64.00;;;;;;5091980;28;19991;-88
2022/09/17 05:45:06;;;;;;;;;;;14.30;64.10;;;;;;5093861;28;19924;-84
2022/09/17 05:47:34;;;;;;;;;;;14.30;64.10;;;;;;5093902;28;19974;-88
2022/09/17 05:49:59;;;;;;;;;;;14.40;64.20;;;;;;5092863;28;20002;-87
2022/09/17 05:52:26;;;;;;;;;;;14.40;64.50;;;;;;5093856;28;20405;-84
2022/09/17 05:54:52;;;;;;;;;;;14.60;65.10;;;;;;5093975;28;19912;-85
2022/09/17 05:57:19;;;;;;;;;;;14.80;66.00;;;;;;5086973;28;19916;-90
2022/09/17 05:59:44;;;;;;;;;;;15.10;66.60;;;;;;5087544;28;19941;-90
2022/09/17 06:02:12;;;;;;;;;;;15.40;67.10;;;;;;5093773;28;19917;-88
2022/09/17 06:04:38;;;;;;;;;;;15.70;67.10;;;;;;5073681;28;19919;-90
2022/09/17 06:07:06;;;;;;;;;;;16.00;67.20;;;;;;5071865;28;20370;-89
2022/09/17 06:09:33;;;;;;;;;;;16.30;66.80;;;;;;5071871;28;19961;-87
2022/09/17 06:11:58;;;;;;;;;;;16.50;66.20;;;;;;5073326;28;19997;-86
2022/09/17 06:14:24;;;;;;;;;;;16.60;66.00;;;;;;5071932;28;19913;-88
2022/09/17 06:16:50;;;;;;;;;;;16.80;66.30;;;;;;5093784;28;19952;-90
2022/09/17 06:19:15;;;;;;;;;;;17.10;67.30;;;;;;5091993;28;19908;-89
2022/09/17 06:21:40;;;;;;;;;;;17.50;68.20;;;;;;5088009;28;19946;-90
2022/09/17 06:24:06;;;;;;;;;;;18.00;69.30;;;;;;5092889;28;19922;-87
2022/09/17 06:26:31;;;;;;;;;;;18.60;69.90;;;;;;5084815;28;19921;-88
2022/09/17 06:28:57;;;;;;;;;;;19.10;69.40;;;;;;5072832;28;19912;-89
2022/09/17 06:31:23;;;;;;;;;;;19.30;67.40;;;;;;5071742;28;19923;-89
2022/09/17 06:33:50;;;;;;;;;;;19.50;66.40;;;;;;5071759;28;19913;-85
2022/09/17 06:36:15;;;;;;;;;;;19.60;67.10;;;;;;5071219;28;19917;-91
2022/09/17 06:38:41;;;;;;;;;;;19.90;66.90;;;;;;5077655;28;19915;-86
2022/09/17 06:41:07;;;;;;;;;;;20.10;67.40;;;;;;5092543;28;20508;-84
2022/09/17 06:43:32;;;;;;;;;;;20.30;67.60;;;;;;5092872;28;19962;-87
2022/09/17 06:46:02;;;;;;;;;;;20.60;67.30;;;;;;5091860;28;19977;-85
2022/09/17 06:48:28;;;;;;;;;;;20.80;66.40;;;;;;5092167;28;19944;-90
2022/09/17 06:50:54;;;;;;;;;;;21.00;67.10;;;;;;5090646;28;20358;-87
2022/09/17 06:53:20;;;;;;;;;;;21.40;68.20;;;;;;5091735;28;19951;-88
2022/09/17 06:55:46;;;;;;;;;;;21.80;68.10;;;;;;5091986;28;20011;-88
2022/09/17 06:58:11;;;;;;;;;;;22.10;67.70;;;;;;5090428;28;19908;-85
2022/09/17 07:00:37;;;;;;;;;;;22.30;65.90;;;;;;5092849;28;20011;-85
2022/09/17 07:03:03;;;;;;;;;;;22.30;65.50;;;;;;5090453;28;19999;-86
2022/09/17 07:05:29;;;;;;;;;;;22.30;65.80;;;;;;5092440;28;20471;-88
2022/09/17 07:07:55;;;;;;;;;;;22.40;64.70;;;;;;5091999;28;19912;-85
2022/09/17 07:10:22;;;;;;;;;;;22.20;63.10;;;;;;5092603;28;20069;-91
2022/09/17 07:12:47;;;;;;;;;;;22.00;63.50;;;;;;5087912;28;19939;-87
2022/09/17 07:15:14;;;;;;;;;;;22.00;64.70;;;;;;5083535;28;19916;-85
2022/09/17 07:17:41;;;;;;;;;;;22.20;65.50;;;;;;5071236;28;20319;-91
2022/09/17 07:20:07;;;;;;;;;;;22.20;64.80;;;;;;5091975;28;19930;-92
2022/09/17 07:22:33;;;;;;;;;;;22.20;65.00;;;;;;5092595;28;19912;-87
2022/09/17 07:24:58;;;;;;;;;;;22.40;66.30;;;;;;5109623;28;20342;-92
2022/09/17 07:27:26;;;;;;;;;;;22.70;66.70;;;;;;5099450;28;19913;-86
2022/09/17 07:29:51;;;;;;;;;;;23.20;67.50;;;;;;5107988;28;19991;-87
2022/09/17 07:32:16;;;;;;;;;;;23.60;67.70;;;;;;5096230;28;20492;-88
2022/09/17 07:34:42;;;;;;;;;;;24.10;67.20;;;;;;5105991;28;19911;-92
2022/09/17 07:37:07;;;;;;;;;;;24.60;66.60;;;;;;5103309;28;20279;-88
2022/09/17 07:39:33;;;;;;;;;;;25.00;66.60;;;;;;5106770;28;20286;-88
2022/09/17 07:41:58;;;;;;;;;;;25.40;65.90;;;;;;5112126;28;20345;-84
2022/09/17 07:44:24;;;;;;;;;;;25.90;66.30;;;;;;5110407;28;20370;-88
2022/09/17 07:46:50;;;;;;;;;;;26.40;66.40;;;;;;5106031;28;20495;-87
2022/09/17 07:49:15;;;;;;;;;;;26.90;65.50;;;;;;5089858;28;19938;-88
2022/09/17 07:51:40;;;;;;;;;;;27.20;64.40;;;;;;5091597;28;20011;-87
2022/09/17 07:54:06;;;;;;;;;;;27.50;64.30;;;;;;5099214;28;19911;-87
2022/09/17 07:56:32;;;;;;;;;;;27.70;63.20;;;;;;5110852;28;19922;-87
2022/09/17 07:58:57;;;;;;;;;;;27.80;63.50;;;;;;5097925;28;19912;-88
2022/09/17 08:01:22;;;;;;;;;;;28.10;63.60;;;;;;5104367;28;19932;-90
2022/09/17 08:03:52;;;;;;;;;;;28.30;63.60;;;;;;5090284;28;20203;-91
2022/09/17 08:06:20;;;;;;;;;;;28.60;63.80;;;;;;5090646;28;19959;-87
2022/09/17 08:08:46;;;;;;;;;;;28.90;64.10;;;;;;5095873;28;20541;-91
2022/09/17 08:11:13;;;;;;;;;;;29.30;63.80;;;;;;5103800;28;19926;-92
2022/09/17 08:13:39;;;;;;;;;;;29.60;63.90;;;;;;5097960;28;19913;-88
2022/09/17 08:16:10;;;;;;;;;;;29.90;63.30;;;;;;5097836;28;19964;-88
2022/09/17 08:18:36;;;;;;;;;;;30.30;63.00;;;;;;5086625;28;20002;-92
2022/09/17 08:21:03;;;;;;;;;;;30.60;61.90;;;;;;5080754;28;20335;-86
2022/09/17 08:23:29;;;;;;;;;;;30.80;59.10;;;;;;5097958;28;20325;-85
2022/09/17 08:25:55;;;;;;;;;;;31.00;58.60;;;;;;5087036;28;20366;-91
2022/09/17 08:28:21;;;;;;;;;;;31.10;58.70;;;;;;5080416;28;19916;-86
2022/09/17 08:30:50;;;;;;;;;;;31.30;57.80;;;;;;5079253;28;19923;-88
2022/09/17 08:33:16;;;;;;;;;;;31.40;56.60;;;;;;5074722;28;19943;-91
2022/09/17 08:35:53;;;;;;;;;;;31.40;54.90;;;;;;5076156;28;19983;-85
2022/09/17 08:38:21;;;;;;;;;;;31.50;53.60;;;;;;5087702;28;20478;-88
2022/09/17 08:41:13;;;;;;;;;;;31.50;52.80;;;;;;5086013;28;20382;-91
2022/09/17 08:43:45;;;;;;;;;;;31.70;54.20;;;;;;5078257;28;19927;-92
2022/09/17 08:46:10;;;;;;;;;;;31.90;51.10;;;;;;5087444;28;19912;-88
2022/09/17 08:48:40;;;;;;;;;;;32.00;51.60;;;;;;5086405;28;19966;-91
2022/09/17 08:51:11;;;;;;;;;;;32.10;51.80;;;;;;5088547;28;20445;-86
2022/09/17 08:53:37;;;;;;;;;;;32.30;52.60;;;;;;5089486;28;20376;-88
2022/09/17 08:56:10;;;;;;;;;;;32.40;50.60;;;;;;5086733;28;20367;-88
2022/09/17 08:58:54;;;;;;;;;;;32.50;49.30;;;;;;5085785;28;19924;-87
2022/09/17 09:01:30;;;;;;;;;;;32.70;49.90;;;;;;5086259;28;20045;-92
2022/09/17 09:04:02;;;;;;;;;;;32.80;50.00;;;;;;5088375;28;19920;-88
2022/09/17 09:06:40;;;;;;;;;;;32.80;47.10;;;;;;5087790;28;19919;-88
2022/09/17 09:09:10;;;;;;;;;;;33.00;46.60;;;;;;5074936;28;19920;-87
2022/09/17 09:11:36;;;;;;;;;;;32.90;47.00;;;;;;5067916;28;19958;-89
2022/09/17 09:14:08;;;;;;;;;;;33.00;46.10;;;;;;5082656;28;19917;-85
2022/09/17 09:16:36;;;;;;;;;;;33.00;46.20;;;;;;5086946;28;19916;-86
2022/09/17 09:19:13;;;;;;;;;;;33.10;45.50;;;;;;5086997;28;20444;-87
2022/09/17 09:21:47;;;;;;;;;;;32.80;38.30;;;;;;5088435;28;19924;-85
2022/09/17 09:24:15;;;;;;;;;;;32.60;41.70;;;;;;5089432;28;19916;-87
2022/09/17 09:26:46;;;;;;;;;;;32.60;42.10;;;;;;5066147;28;20585;-86
2022/09/17 09:29:20;;;;;;;;;;;32.50;39.90;;;;;;5066200;28;19913;-86
2022/09/17 09:31:45;;;;;;;;;;;32.40;39.90;;;;;;5068332;28;20502;-88
2022/09/17 09:34:12;;;;;;;;;;;32.40;37.80;;;;;;5082947;28;19927;-89
2022/09/17 09:36:41;;;;;;;;;;;32.20;37.30;;;;;;5087217;28;19923;-86
2022/09/17 09:39:13;;;;;;;;;;;32.10;37.70;;;;;;5066294;28;20390;-86
2022/09/17 09:42:11;;;;;;;;;;;32.20;36.50;;;;;;5068181;28;19988;-90
2022/09/17 09:44:36;;;;;;;;;;;32.30;37.10;;;;;;5065582;28;19920;-92
2022/09/17 09:47:20;;;;;;;;;;;32.40;37.20;;;;;;5065615;28;19935;-92
2022/09/17 09:49:49;;;;;;;;;;;32.60;36.20;;;;;;5068022;28;19921;-86
2022/09/17 09:52:22;;;;;;;;;;;32.80;35.50;;;;;;5068694;28;19943;-92
2022/09/17 09:55:00;;;;;;;;;;;33.10;34.60;;;;;;5071230;28;19923;-87
2022/09/17 09:57:31;;;;;;;;;;;33.10;34.20;;;;;;5096200;28;20370;-90
2022/09/17 10:00:16;;;;;;;;;;;32.80;31.80;;;;;;5091417;28;19995;-89
2022/09/17 10:02:42;;;;;;;;;;;32.70;31.40;;;;;;5110931;28;19916;-86
2022/09/17 10:05:07;;;;;;;;;;;32.30;30.00;;;;;;5106398;28;19920;-86
2022/09/17 10:07:41;;;;;;;;;;;32.40;31.50;;;;;;5093883;28;19912;-91
2022/09/17 10:10:09;;;;;;;;;;;32.60;30.30;;;;;;5082692;28;19972;-86
2022/09/17 10:12:34;;;;;;;;;;;32.70;30.90;;;;;;5101181;28;19916;-87
2022/09/17 10:15:16;;;;;;;;;;;32.80;29.80;;;;;;5087759;28;19933;-85
2022/09/17 10:17:42;;;;;;;;;;;33.00;28.80;;;;;;5092587;28;19913;-86
2022/09/17 10:20:16;;;;;;;;;;;33.30;29.00;;;;;;5088466;28;19942;-93
2022/09/17 10:22:43;;;;;;;;;;;33.30;28.40;;;;;;5087962;28;20694;-87
2022/09/17 10:25:30;;;;;;;;;;;33.50;28.00;;;;;;5093490;28;19920;-90
2022/09/17 10:27:57;;;;;;;;;;;33.90;27.60;;;;;;5090052;28;19912;-87
2022/09/17 10:30:23;;;;;;;;;;;34.20;26.50;;;;;;5079471;28;19936;-87
2022/09/17 10:33:08;;;;;;;;;;;33.80;26.50;;;;;;5111323;28;20341;-85
2022/09/17 10:35:33;;;;;;;;;;;33.80;26.90;;;;;;5111127;28;19946;-93
2022/09/17 10:37:59;;;;;;;;;;;33.50;23.80;;;;;;5093559;28;19916;-92
2022/09/17 10:40:27;;;;;;;;;;;32.70;24.00;;;;;;5101601;28;19928;-90
2022/09/17 10:43:13;;;;;;;;;;;32.20;25.00;;;;;;5111169;28;19912;-86
2022/09/17 10:45:41;;;;;;;;;;;32.10;25.60;;;;;;5108227;28;20289;-87
2022/09/17 10:48:32;;;;;;;;;;;32.20;26.40;;;;;;5093525;28;19926;-87
2022/09/17 10:51:00;;;;;;;;;;;32.10;25.90;;;;;;5091328;28;20323;-86
2022/09/17 10:53:26;;;;;;;;;;;32.00;25.20;;;;;;5089455;28;19993;-90
2022/09/17 10:56:05;;;;;;;;;;;31.80;25.10;;;;;;5091288;28;19916;-92
2022/09/17 10:58:37;;;;;;;;;;;31.40;25.60;;;;;;5086659;28;19919;-91
2022/09/17 11:01:22;;;;;;;;;;;30.80;24.90;;;;;;5089147;28;20013;-87
2022/09/17 11:03:48;;;;;;;;;;;30.60;26.10;;;;;;5091167;28;19916;-90
2022/09/17 11:06:14;;;;;;;;;;;30.90;25.20;;;;;;5107714;28;20281;-92
2022/09/17 11:08:45;;;;;;;;;;;31.10;25.90;;;;;;5091588;28;19954;-86
2022/09/17 11:11:21;;;;;;;;;;;30.90;25.80;;;;;;5093058;28;19963;-94
2022/09/17 11:13:56;;;;;;;;;;;30.40;25.90;;;;;;5092404;28;19912;-87
2022/09/17 11:16:30;;;;;;;;;;;30.00;26.60;;;;;;5097182;28;19942;-86
2022/09/17 11:19:04;;;;;;;;;;;30.20;27.20;;;;;;5087884;28;19908;-90
2022/09/17 11:21:33;;;;;;;;;;;30.50;27.20;;;;;;5080622;28;19987;-87
2022/09/17 11:24:16;;;;;;;;;;;30.70;26.60;;;;;;5071247;28;19958;-87
2022/09/17 11:26:58;;;;;;;;;;;30.90;26.80;;;;;;5069513;28;19920;-92
2022/09/17 11:29:42;;;;;;;;;;;31.30;26.80;;;;;;5075630;28;19967;-93
2022/09/17 11:32:15;;;;;;;;;;;31.50;26.00;;;;;;5073679;28;19959;-87
2022/09/17 11:34:46;;;;;;;;;;;31.30;25.40;;;;;;5070509;28;19920;-87
2022/09/17 11:37:34;;;;;;;;;;;31.30;25.70;;;;;;5070076;28;19928;-92
2022/09/17 11:39:59;;;;;;;;;;;31.50;25.30;;;;;;5072859;28;20637;-85
2022/09/17 11:42:30;;;;;;;;;;;31.90;25.00;;;;;;5070634;28;20600;-91
2022/09/17 11:45:01;;;;;;;;;;;32.10;25.00;;;;;;5098151;28;19916;-86
2022/09/17 11:47:34;;;;;;;;;;;31.90;24.60;;;;;;5095259;28;19919;-89
2022/09/17 11:50:18;;;;;;;;;;;32.10;24.70;;;;;;5091947;28;19920;-87
2022/09/17 11:52:46;;;;;;;;;;;32.00;24.50;;;;;;5090999;28;19912;-89
2022/09/17 11:55:24;;;;;;;;;;;32.10;23.80;;;;;;5093038;28;20323;-89
2022/09/17 11:57:52;;;;;;;;;;;32.20;23.60;;;;;;5094042;28;19896;-86
2022/09/17 12:00:19;;;;;;;;;;;32.10;23.00;;;;;;5090813;28;19920;-87
2022/09/17 12:02:50;;;;;;;;;;;31.80;23.30;;;;;;5085611;28;20367;-89
2022/09/17 12:05:16;;;;;;;;;;;31.80;23.80;;;;;;5088396;28;19989;-93
2022/09/17 12:07:48;;;;;;;;;;;31.30;24.00;;;;;;5087092;28;19916;-89
2022/09/17 12:10:32;;;;;;;;;;;31.00;24.40;;;;;;5070299;28;20232;-88
2022/09/17 12:13:13;;;;;;;;;;;30.80;24.70;;;;;;5070171;28;19920;-86
2022/09/17 12:15:41;;;;;;;;;;;30.40;24.30;;;;;;5107660;28;19938;-87
2022/09/17 12:18:09;;;;;;;;;;;30.30;23.80;;;;;;5094544;28;19919;-89
2022/09/17 12:20:36;;;;;;;;;;;30.30;24.00;;;;;;5093266;28;19932;-87
2022/09/17 12:23:05;;;;;;;;;;;30.00;23.90;;;;;;5090131;28;19919;-87
2022/09/17 12:25:34;;;;;;;;;;;29.50;23.70;;;;;;5108058;28;19919;-87
2022/09/17 12:28:07;;;;;;;;;;;29.10;24.40;;;;;;5095587;28;19915;-88
2022/09/17 12:30:41;;;;;;;;;;;28.80;24.90;;;;;;5109888;28;19975;-88
2022/09/17 12:33:18;;;;;;;;;;;28.50;24.80;;;;;;5110462;28;19912;-91
2022/09/17 12:35:43;;;;;;;;;;;28.30;24.90;;;;;;5092546;28;19987;-88
2022/09/17 12:38:14;;;;;;;;;;;28.20;25.20;;;;;;5087946;28;20011;-89
2022/09/17 12:40:49;;;;;;;;;;;27.80;25.20;;;;;;5115379;28;19997;-88
2022/09/17 12:43:38;;;;;;;;;;;27.80;25.30;;;;;;5102586;28;20012;-87
2022/09/17 12:46:16;;;;;;;;;;;28.30;24.80;;;;;;5073954;28;20031;-90
2022/09/17 12:48:41;;;;;;;;;;;28.30;24.70;;;;;;5086177;28;19912;-89
2022/09/17 12:51:18;;;;;;;;;;;28.00;24.60;;;;;;5089498;28;19919;-87
2022/09/17 12:54:02;;;;;;;;;;;27.80;25.00;;;;;;5093864;28;19940;-92
2022/09/17 12:56:40;;;;;;;;;;;28.00;24.70;;;;;;5103461;28;19923;-86
2022/09/17 12:59:11;;;;;;;;;;;28.30;24.60;;;;;;5086452;28;19920;-87
2022/09/17 13:01:45;;;;;;;;;;;28.70;24.20;;;;;;5088867;28;19920;-92
2022/09/17 13:04:22;;;;;;;;;;;28.90;24.20;;;;;;5086688;28;19939;-88
2022/09/17 13:07:04;;;;;;;;;;;29.10;23.90;;;;;;5088221;28;19995;-86
2022/09/17 13:09:41;;;;;;;;;;;29.30;23.90;;;;;;5098159;28;19980;-89
2022/09/17 13:12:19;;;;;;;;;;;29.50;23.90;;;;;;5090930;28;19920;-87
2022/09/17 13:15:04;;;;;;;;;;;29.80;23.90;;;;;;5097698;28;19935;-91
2022/09/17 13:17:38;;;;;;;;;;;29.80;23.90;;;;;;5098071;28;19916;-90
2022/09/17 13:20:16;;;;;;;;;;;29.70;24.10;;;;;;5090506;28;19928;-88
2022/09/17 13:22:47;;;;;;;;;;;29.30;24.50;;;;;;5092171;28;19966;-93
2022/09/17 13:25:14;;;;;;;;;;;28.70;24.90;;;;;;5088682;28;19959;-87
2022/09/17 13:27:40;;;;;;;;;;;28.10;25.00;;;;;;5086304;28;20497;-89
2022/09/17 13:30:06;;;;;;;;;;;27.60;25.40;;;;;;5103939;28;19919;-88
2022/09/17 13:32:32;;;;;;;;;;;27.20;25.80;;;;;;5108413;28;19918;-89
2022/09/17 13:35:12;;;;;;;;;;;26.70;26.40;;;;;;5109017;28;19916;-92
2022/09/17 13:37:43;;;;;;;;;;;26.40;26.90;;;;;;5097604;28;19923;-89
2022/09/17 13:40:21;;;;;;;;;;;26.10;27.20;;;;;;5087832;28;20025;-87
2022/09/17 13:42:48;;;;;;;;;;;25.80;27.10;;;;;;5087468;28;20015;-92
2022/09/17 13:45:15;;;;;;;;;;;25.40;26.80;;;;;;5089636;28;19920;-89
2022/09/17 13:47:54;;;;;;;;;;;25.00;26.80;;;;;;5088021;28;19919;-90
2022/09/17 13:50:34;;;;;;;;;;;24.70;26.90;;;;;;5106413;28;20368;-91
2022/09/17 13:53:16;;;;;;;;;;;24.30;27.10;;;;;;5108893;28;19916;-87
2022/09/17 13:55:43;;;;;;;;;;;24.10;27.70;;;;;;5110349;28;19927;-89
2022/09/17 13:58:22;;;;;;;;;;;23.80;28.20;;;;;;5095021;28;19920;-89
2022/09/17 14:00:53;;;;;;;;;;;23.60;28.80;;;;;;5087806;28;19924;-89
2022/09/17 14:03:36;;;;;;;;;;;23.30;29.20;;;;;;5090167;28;20027;-92
2022/09/17 14:06:08;;;;;;;;;;;23.10;29.70;;;;;;5094666;28;19916;-88
2022/09/17 14:08:43;;;;;;;;;;;22.80;30.40;;;;;;5092873;28;20431;-89
2022/09/17 14:11:28;;;;;;;;;;;22.60;31.00;;;;;;5094481;28;19966;-92
2022/09/17 14:13:54;;;;;;;;;;;22.50;31.60;;;;;;5085965;28;19967;-91
2022/09/17 14:16:35;;;;;;;;;;;22.30;32.50;;;;;;5073206;28;19919;-93
2022/09/17 14:19:23;;;;;;;;;;;22.20;32.90;;;;;;5072460;28;20276;-90
2022/09/17 14:21:56;;;;;;;;;;;22.00;33.20;;;;;;5075294;28;19920;-88
2022/09/17 14:24:22;;;;;;;;;;;21.80;33.80;;;;;;5070494;28;20360;-88
2022/09/17 14:26:48;;;;;;;;;;;21.80;34.10;;;;;;5086949;28;20242;-88
2022/09/17 14:29:22;;;;;;;;;;;21.70;34.30;;;;;;5093703;28;19946;-86
2022/09/17 14:31:48;;;;;;;;;;;21.60;34.60;;;;;;5092129;28;19923;-88